Time;durP1;ratioP1;P1;durP2;ratioP2;P2;SDS_P1;SDS_P2;PMS_P1;PMS_P2;Temp;Humidity;BMP_temperature;BMP_pressure;BME280_temperature;BME280_humidity;BME280_pressure;Samples;Min_cycle;Max_cycle;Signal;HPM_P1;HPM_P2
2023/12/14 00:02:13;;;;;;;0.63;0.55;;;;;;;;;;4930310;29;20063;-56
2023/12/14 00:04:40;;;;;;;1.45;0.50;;;;;;;;;;4931761;29;20055;-56
2023/12/14 00:07:07;;;;;;;0.57;0.50;;;;;;;;;;4942957;28;20048;-56
2023/12/14 00:09:33;;;;;;;0.40;0.40;;;;;;;;;;4915821;29;20062;-56
2023/12/14 00:11:59;;;;;;;0.73;0.40;;;;;;;;;;4933778;29;20065;-56
2023/12/14 00:14:25;;;;;;;0.57;0.50;;;;;;;;;;4929231;29;20051;-56
2023/12/14 00:16:52;;;;;;;0.40;0.40;;;;;;;;;;4931641;29;20043;-56
2023/12/14 00:19:18;;;;;;;1.05;0.43;;;;;;;;;;4917060;29;20039;-56
2023/12/14 00:21:45;;;;;;;0.70;0.50;;;;;;;;;;4932720;29;20035;-57
2023/12/14 00:24:11;;;;;;;1.08;0.55;;;;;;;;;;4932913;29;20040;-60
2023/12/14 00:26:37;;;;;;;0.70;0.57;;;;;;;;;;4932946;29;20043;-56
2023/12/14 00:29:03;;;;;;;0.55;0.52;;;;;;;;;;4950064;29;20027;-60
2023/12/14 00:31:30;;;;;;;0.90;0.80;;;;;;;;;;4948016;28;20070;-59
2023/12/14 00:33:56;;;;;;;0.77;0.68;;;;;;;;;;4932570;29;20046;-58
2023/12/14 00:36:22;;;;;;;1.52;0.80;;;;;;;;;;4916592;29;20043;-55
2023/12/14 00:38:48;;;;;;;0.90;0.50;;;;;;;;;;4932849;29;20530;-57
2023/12/14 00:41:14;;;;;;;1.90;0.60;;;;;;;;;;4931744;29;20039;-56
2023/12/14 00:43:40;;;;;;;0.50;0.50;;;;;;;;;;4915899;29;20031;-56
2023/12/14 00:46:07;;;;;;;1.98;0.63;;;;;;;;;;4931955;29;20034;-56
2023/12/14 00:48:33;;;;;;;1.02;0.85;;;;;;;;;;4930416;29;20035;-57
2023/12/14 00:50:59;;;;;;;1.90;0.82;;;;;;;;;;4947398;29;20047;-56
2023/12/14 00:53:25;;;;;;;1.10;0.80;;;;;;;;;;4931549;29;20043;-57
2023/12/14 00:55:52;;;;;;;0.60;0.60;;;;;;;;;;4931926;29;20495;-56
2023/12/14 00:58:18;;;;;;;1.55;0.80;;;;;;;;;;4932979;29;20047;-56
2023/12/14 01:00:44;;;;;;;1.35;0.60;;;;;;;;;;4930563;29;20032;-56
2023/12/14 01:03:10;;;;;;;1.92;0.70;;;;;;;;;;4917425;29;20051;-56
2023/12/14 01:05:36;;;;;;;1.15;0.70;;;;;;;;;;4931532;29;20040;-57
2023/12/14 01:08:02;;;;;;;1.02;0.80;;;;;;;;;;4930687;29;20043;-57
2023/12/14 01:10:29;;;;;;;0.93;0.70;;;;;;;;;;4931373;29;20056;-57
2023/12/14 01:12:55;;;;;;;0.65;0.60;;;;;;;;;;4946508;29;20063;-58
2023/12/14 01:15:21;;;;;;;1.52;0.85;;;;;;;;;;4930601;29;20047;-58
2023/12/14 01:17:47;;;;;;;0.75;0.60;;;;;;;;;;4930440;29;20051;-58
2023/12/14 01:20:13;;;;;;;3.63;0.82;;;;;;;;;;4929439;29;20507;-57
2023/12/14 01:22:39;;;;;;;2.08;1.08;;;;;;;;;;4914715;29;20036;-57
2023/12/14 01:25:06;;;;;;;1.17;0.75;;;;;;;;;;4929420;29;20040;-57
2023/12/14 01:27:32;;;;;;;2.70;1.00;;;;;;;;;;4931026;29;20039;-55
2023/12/14 01:29:58;;;;;;;1.58;0.90;;;;;;;;;;4932807;29;20055;-57
2023/12/14 01:32:24;;;;;;;2.22;1.30;;;;;;;;;;4930097;29;20047;-55
2023/12/14 01:34:50;;;;;;;1.92;0.98;;;;;;;;;;4944970;28;20412;-56
2023/12/14 01:37:17;;;;;;;1.77;1.10;;;;;;;;;;4926991;29;20517;-56
2023/12/14 01:39:43;;;;;;;1.30;0.95;;;;;;;;;;4929869;29;20043;-55
2023/12/14 01:42:09;;;;;;;2.40;1.05;;;;;;;;;;4930945;29;20124;-55
2023/12/14 01:44:35;;;;;;;1.75;1.30;;;;;;;;;;4928803;29;21156;-57
2023/12/14 01:47:01;;;;;;;8.63;1.88;;;;;;;;;;4930923;29;20523;-55
2023/12/14 01:49:27;;;;;;;2.60;0.98;;;;;;;;;;4931109;29;20067;-59
2023/12/14 01:51:53;;;;;;;2.40;1.30;;;;;;;;;;4929992;29;20035;-57
2023/12/14 01:54:20;;;;;;;3.95;1.10;;;;;;;;;;4942411;29;20052;-57
2023/12/14 01:56:46;;;;;;;2.35;1.30;;;;;;;;;;4914854;29;20455;-57
2023/12/14 01:59:13;;;;;;;1.85;1.30;;;;;;;;;;4930798;29;20054;-55
2023/12/14 02:01:44;;;;;;;2.42;1.30;;;;;;;;;;4927842;29;20530;-55
2023/12/14 02:04:12;;;;;;;1.83;1.38;;;;;;;;;;4944872;28;20039;-57
2023/12/14 02:06:39;;;;;;;2.33;1.35;;;;;;;;;;4934337;29;20066;-55
2023/12/14 02:09:05;;;;;;;2.42;1.17;;;;;;;;;;4933734;29;20036;-55
2023/12/14 02:11:31;;;;;;;2.05;1.00;;;;;;;;;;4933341;29;20051;-55
2023/12/14 02:13:58;;;;;;;1.63;1.00;;;;;;;;;;4932974;29;20031;-56
2023/12/14 02:16:24;;;;;;;1.23;0.98;;;;;;;;;;4947613;28;20052;-55
2023/12/14 02:18:50;;;;;;;1.73;0.90;;;;;;;;;;4933874;29;20051;-58
2023/12/14 02:21:16;;;;;;;3.22;1.02;;;;;;;;;;4931327;29;20399;-57
2023/12/14 02:23:46;;;;;;;1.42;0.88;;;;;;;;;;4931840;29;20048;-57
2023/12/14 02:26:13;;;;;;;3.38;1.02;;;;;;;;;;4948857;29;20589;-59
2023/12/14 02:28:39;;;;;;;3.70;1.10;;;;;;;;;;4933639;29;20128;-56
2023/12/14 02:31:06;;;;;;;2.58;1.20;;;;;;;;;;4933924;29;20043;-56
2023/12/14 02:33:32;;;;;;;2.67;1.80;;;;;;;;;;4932434;29;20039;-58
2023/12/14 02:35:58;;;;;;;2.20;1.60;;;;;;;;;;4931895;29;20051;-57
2023/12/14 02:38:25;;;;;;;5.05;1.80;;;;;;;;;;4933274;29;20035;-58
2023/12/14 02:40:52;;;;;;;3.53;1.60;;;;;;;;;;4933238;29;20036;-57
2023/12/14 02:43:19;;;;;;;4.10;1.98;;;;;;;;;;4946765;28;20052;-58
2023/12/14 02:45:45;;;;;;;3.03;2.10;;;;;;;;;;4947890;28;20121;-55
2023/12/14 02:48:12;;;;;;;11.23;2.00;;;;;;;;;;4945667;29;20046;-57
2023/12/14 02:50:38;;;;;;;3.63;2.15;;;;;;;;;;4947353;28;20043;-55
2023/12/14 02:53:04;;;;;;;4.72;2.35;;;;;;;;;;4947847;28;20645;-55
2023/12/14 02:55:30;;;;;;;4.20;2.30;;;;;;;;;;4917044;29;20044;-56
2023/12/14 02:57:56;;;;;;;4.70;2.95;;;;;;;;;;4932412;29;20048;-57
2023/12/14 03:00:22;;;;;;;3.97;2.17;;;;;;;;;;4936871;29;20031;-59
2023/12/14 03:02:49;;;;;;;6.00;2.55;;;;;;;;;;4948522;29;20055;-59
2023/12/14 03:05:15;;;;;;;4.13;2.20;;;;;;;;;;4916753;29;20035;-57
2023/12/14 03:07:41;;;;;;;5.28;2.17;;;;;;;;;;4929305;29;20044;-59
2023/12/14 03:10:08;;;;;;;3.25;2.20;;;;;;;;;;4932843;29;20499;-57
2023/12/14 03:12:34;;;;;;;4.13;2.10;;;;;;;;;;4933487;29;20519;-55
2023/12/14 03:15:00;;;;;;;3.65;2.25;;;;;;;;;;4933709;29;20039;-57
2023/12/14 03:17:26;;;;;;;3.20;1.92;;;;;;;;;;4932678;29;20416;-55
2023/12/14 03:19:53;;;;;;;4.18;2.28;;;;;;;;;;4931522;29;20032;-57
2023/12/14 03:22:19;;;;;;;3.38;2.13;;;;;;;;;;4932942;29;20066;-58
2023/12/14 03:24:45;;;;;;;4.10;2.42;;;;;;;;;;4917721;29;20044;-59
2023/12/14 03:27:11;;;;;;;6.03;3.08;;;;;;;;;;4930343;29;20399;-58
2023/12/14 03:29:37;;;;;;;6.43;3.05;;;;;;;;;;4933078;29;20066;-59
2023/12/14 03:32:04;;;;;;;3.60;2.40;;;;;;;;;;4932400;29;20099;-57
2023/12/14 03:34:30;;;;;;;7.45;2.83;;;;;;;;;;4935523;29;20227;-55
2023/12/14 03:36:56;;;;;;;3.40;2.15;;;;;;;;;;4928309;29;20403;-57
2023/12/14 03:39:22;;;;;;;4.10;2.72;;;;;;;;;;4930925;29;20054;-57
2023/12/14 03:41:48;;;;;;;4.13;2.47;;;;;;;;;;4933989;29;20047;-57
2023/12/14 03:44:14;;;;;;;3.55;2.53;;;;;;;;;;4930780;29;20492;-55
2023/12/14 03:46:40;;;;;;;6.05;2.60;;;;;;;;;;4946233;28;20047;-57
2023/12/14 03:49:07;;;;;;;5.60;2.45;;;;;;;;;;4945562;28;20047;-57
2023/12/14 03:51:33;;;;;;;6.13;2.60;;;;;;;;;;4932945;29;20047;-58
2023/12/14 03:53:59;;;;;;;3.80;2.17;;;;;;;;;;4932263;29;20030;-55
2023/12/14 03:56:25;;;;;;;5.13;2.58;;;;;;;;;;4913150;29;20036;-57
2023/12/14 03:58:51;;;;;;;3.03;2.13;;;;;;;;;;4927293;29;20051;-57
2023/12/14 04:01:19;;;;;;;3.28;2.65;;;;;;;;;;4949102;29;20039;-57
2023/12/14 04:03:45;;;;;;;8.95;2.40;;;;;;;;;;4930969;29;20051;-57
2023/12/14 04:06:12;;;;;;;3.00;2.20;;;;;;;;;;4931708;29;20050;-58
2023/12/14 04:08:39;;;;;;;5.68;2.30;;;;;;;;;;4930654;29;20048;-58
2023/12/14 04:11:05;;;;;;;5.15;2.22;;;;;;;;;;4934304;29;20051;-55
2023/12/14 04:13:32;;;;;;;5.38;2.50;;;;;;;;;;4930878;29;20055;-55
2023/12/14 04:15:58;;;;;;;3.60;2.30;;;;;;;;;;4915431;29;20036;-57
2023/12/14 04:18:24;;;;;;;6.00;2.80;;;;;;;;;;4930874;29;20504;-57
2023/12/14 04:20:51;;;;;;;4.00;2.25;;;;;;;;;;4945759;28;20078;-58
2023/12/14 04:23:17;;;;;;;5.63;2.83;;;;;;;;;;4932088;29;20044;-56
2023/12/14 04:25:43;;;;;;;3.45;2.00;;;;;;;;;;4932936;29;20220;-57
2023/12/14 04:28:10;;;;;;;4.20;2.47;;;;;;;;;;4931703;29;20042;-55
2023/12/14 04:30:36;;;;;;;4.80;2.40;;;;;;;;;;4947607;28;20063;-59
2023/12/14 04:33:02;;;;;;;3.97;2.28;;;;;;;;;;4946989;29;20051;-59
2023/12/14 04:35:28;;;;;;;3.42;2.05;;;;;;;;;;4929831;29;20045;-58
2023/12/14 04:37:54;;;;;;;3.45;2.22;;;;;;;;;;4931583;29;20058;-58
2023/12/14 04:40:20;;;;;;;3.67;2.45;;;;;;;;;;4932141;29;20050;-57
2023/12/14 04:42:47;;;;;;;2.72;2.00;;;;;;;;;;4930049;29;20039;-57
2023/12/14 04:45:13;;;;;;;3.50;2.03;;;;;;;;;;4930639;29;20036;-57
2023/12/14 04:47:39;;;;;;;3.05;1.88;;;;;;;;;;4931111;29;20043;-56
2023/12/14 04:50:06;;;;;;;4.35;2.47;;;;;;;;;;4931261;29;20047;-55
2023/12/14 04:52:32;;;;;;;4.97;2.75;;;;;;;;;;4929093;29;20036;-56
2023/12/14 04:54:58;;;;;;;7.47;2.80;;;;;;;;;;4928803;29;20047;-57
2023/12/14 04:57:25;;;;;;;6.78;2.90;;;;;;;;;;4926472;29;20066;-56
2023/12/14 04:59:51;;;;;;;5.07;2.30;;;;;;;;;;4930491;29;20058;-57
2023/12/14 05:02:17;;;;;;;3.85;2.10;;;;;;;;;;4929883;29;20047;-55
2023/12/14 05:04:43;;;;;;;7.60;2.80;;;;;;;;;;4932939;29;20036;-58
2023/12/14 05:07:09;;;;;;;4.47;2.58;;;;;;;;;;4943965;29;20051;-58
2023/12/14 05:09:35;;;;;;;5.18;2.65;;;;;;;;;;4928623;29;20072;-57
2023/12/14 05:12:01;;;;;;;5.18;2.30;;;;;;;;;;4935979;29;20052;-59
2023/12/14 05:14:29;;;;;;;6.70;3.30;;;;;;;;;;4935958;29;20493;-59
2023/12/14 05:16:55;;;;;;;5.18;2.92;;;;;;;;;;4931127;29;20048;-58
2023/12/14 05:19:21;;;;;;;9.65;4.15;;;;;;;;;;4940517;29;20058;-56
2023/12/14 05:21:47;;;;;;;8.88;3.97;;;;;;;;;;4945949;29;20051;-57
2023/12/14 05:24:14;;;;;;;6.82;4.03;;;;;;;;;;4928103;29;20036;-57
2023/12/14 05:26:40;;;;;;;6.55;3.97;;;;;;;;;;4931314;29;20368;-57
2023/12/14 05:29:06;;;;;;;6.70;3.60;;;;;;;;;;4941161;29;20060;-57
2023/12/14 05:31:32;;;;;;;6.28;4.38;;;;;;;;;;4925933;29;20282;-60
2023/12/14 05:33:58;;;;;;;8.93;3.80;;;;;;;;;;4926657;29;20048;-57
2023/12/14 05:36:24;;;;;;;6.68;3.67;;;;;;;;;;4930766;29;20043;-57
2023/12/14 05:38:50;;;;;;;5.82;3.60;;;;;;;;;;4946634;28;20047;-57
2023/12/14 05:41:17;;;;;;;7.47;4.18;;;;;;;;;;4933532;29;20043;-56
2023/12/14 05:43:43;;;;;;;6.78;3.97;;;;;;;;;;4934292;29;20032;-57
2023/12/14 05:46:09;;;;;;;6.68;4.13;;;;;;;;;;4935534;29;20080;-56
2023/12/14 05:48:36;;;;;;;9.00;4.82;;;;;;;;;;4932729;29;20048;-57
2023/12/14 05:51:02;;;;;;;8.35;4.68;;;;;;;;;;4933165;29;20039;-56
2023/12/14 05:53:29;;;;;;;9.25;4.38;;;;;;;;;;4936306;29;20536;-57
2023/12/14 05:55:55;;;;;;;5.38;3.63;;;;;;;;;;4932575;29;20035;-57
2023/12/14 05:58:21;;;;;;;6.30;3.60;;;;;;;;;;4917949;29;20047;-59
2023/12/14 06:00:47;;;;;;;6.18;3.45;;;;;;;;;;4936213;29;20047;-58
2023/12/14 06:03:13;;;;;;;7.28;3.65;;;;;;;;;;4935056;29;20499;-58
2023/12/14 06:05:40;;;;;;;9.45;3.42;;;;;;;;;;4950030;29;20052;-57
2023/12/14 06:08:07;;;;;;;8.23;3.45;;;;;;;;;;4934754;29;20364;-58
2023/12/14 06:10:33;;;;;;;6.22;3.72;;;;;;;;;;4949771;28;20043;-57
2023/12/14 06:12:59;;;;;;;7.70;3.55;;;;;;;;;;4935025;29;20044;-57
2023/12/14 06:15:25;;;;;;;11.68;3.28;;;;;;;;;;4950314;29;20051;-56
2023/12/14 06:17:51;;;;;;;6.40;3.13;;;;;;;;;;4934780;29;20387;-60
2023/12/14 06:20:17;;;;;;;4.15;2.95;;;;;;;;;;4950001;28;20035;-56
2023/12/14 06:22:43;;;;;;;4.60;2.83;;;;;;;;;;4919326;29;20035;-59
2023/12/14 06:25:10;;;;;;;5.65;3.25;;;;;;;;;;4936318;29;20062;-58
2023/12/14 06:27:36;;;;;;;9.63;3.35;;;;;;;;;;4933225;29;20031;-58
2023/12/14 06:30:02;;;;;;;6.63;3.28;;;;;;;;;;4934511;29;20054;-60
2023/12/14 06:32:29;;;;;;;5.60;3.17;;;;;;;;;;4935260;29;20048;-58
2023/12/14 06:34:55;;;;;;;5.13;3.28;;;;;;;;;;4933594;29;20035;-59
2023/12/14 06:37:21;;;;;;;6.47;3.45;;;;;;;;;;4934885;29;20039;-58
2023/12/14 06:39:47;;;;;;;5.30;3.50;;;;;;;;;;4936168;29;20420;-58
2023/12/14 06:42:13;;;;;;;5.80;3.78;;;;;;;;;;4935553;29;20365;-58
2023/12/14 06:44:39;;;;;;;6.07;3.60;;;;;;;;;;4930935;29;20487;-60
2023/12/14 06:47:06;;;;;;;5.78;3.33;;;;;;;;;;4929132;29;20423;-57
2023/12/14 06:49:32;;;;;;;10.48;5.93;;;;;;;;;;4932271;29;20040;-59
2023/12/14 06:51:58;;;;;;;7.25;3.50;;;;;;;;;;4915589;29;20070;-59
2023/12/14 06:54:24;;;;;;;5.78;3.15;;;;;;;;;;4930895;29;20507;-57
2023/12/14 06:56:50;;;;;;;4.65;3.20;;;;;;;;;;4931479;29;20036;-57
2023/12/14 06:59:16;;;;;;;7.50;3.00;;;;;;;;;;4948840;29;20040;-60
2023/12/14 07:01:42;;;;;;;5.00;3.03;;;;;;;;;;4931338;29;20040;-57
2023/12/14 07:04:09;;;;;;;6.25;3.53;;;;;;;;;;4934697;29;20042;-57
2023/12/14 07:06:35;;;;;;;4.13;3.10;;;;;;;;;;4931247;29;20040;-56
2023/12/14 07:09:01;;;;;;;6.50;3.45;;;;;;;;;;4928057;29;20055;-57
2023/12/14 07:11:28;;;;;;;5.05;3.03;;;;;;;;;;4933062;29;20044;-56
2023/12/14 07:13:54;;;;;;;5.70;2.92;;;;;;;;;;4932410;29;20404;-56
2023/12/14 07:16:20;;;;;;;7.15;3.20;;;;;;;;;;4938259;29;20399;-56
2023/12/14 07:18:46;;;;;;;5.07;3.15;;;;;;;;;;4933107;29;20043;-58
2023/12/14 07:21:13;;;;;;;5.95;3.00;;;;;;;;;;4932938;29;20048;-59
2023/12/14 07:23:39;;;;;;;5.93;3.15;;;;;;;;;;4930332;29;20039;-56
2023/12/14 07:26:05;;;;;;;4.70;3.10;;;;;;;;;;4948070;29;20047;-57
2023/12/14 07:28:32;;;;;;;3.38;2.13;;;;;;;;;;4933081;29;20737;-58
2023/12/14 07:30:58;;;;;;;3.70;2.30;;;;;;;;;;4933429;29;20032;-59
2023/12/14 07:33:24;;;;;;;4.00;2.33;;;;;;;;;;4947938;29;20036;-58
2023/12/14 07:35:51;;;;;;;5.90;1.85;;;;;;;;;;4930709;29;20420;-58
2023/12/14 07:38:17;;;;;;;3.40;2.50;;;;;;;;;;4932669;29;20066;-60
2023/12/14 07:40:46;;;;;;;7.70;4.10;;;;;;;;;;4929590;29;20043;-60
2023/12/14 07:43:12;;;;;;;8.90;4.82;;;;;;;;;;4932949;29;20040;-58
2023/12/14 07:45:39;;;;;;;12.63;6.40;;;;;;;;;;4928644;29;20031;-58
2023/12/14 07:48:05;;;;;;;14.05;6.00;;;;;;;;;;4930331;29;20047;-58
2023/12/14 07:50:31;;;;;;;9.40;5.50;;;;;;;;;;4945604;29;20058;-59
2023/12/14 07:52:57;;;;;;;9.40;4.30;;;;;;;;;;4932088;29;20121;-59
2023/12/14 07:55:23;;;;;;;19.48;10.23;;;;;;;;;;4933692;29;20051;-59
2023/12/14 07:57:50;;;;;;;19.50;10.15;;;;;;;;;;4947421;29;20055;-56
2023/12/14 08:00:17;;;;;;;17.30;8.00;;;;;;;;;;4933528;29;20071;-58
2023/12/14 08:02:43;;;;;;;10.90;6.78;;;;;;;;;;4929214;29;20051;-57
2023/12/14 08:05:09;;;;;;;11.32;6.53;;;;;;;;;;4932699;29;20047;-58
2023/12/14 08:07:35;;;;;;;11.88;7.50;;;;;;;;;;4945796;29;20518;-57
2023/12/14 08:10:02;;;;;;;12.90;7.70;;;;;;;;;;4946914;29;20059;-61
2023/12/14 08:12:28;;;;;;;14.68;7.88;;;;;;;;;;4932101;29;20040;-58
2023/12/14 08:14:54;;;;;;;13.25;6.68;;;;;;;;;;4931758;29;20039;-56
2023/12/14 08:17:21;;;;;;;9.73;5.60;;;;;;;;;;4930349;29;20062;-58
2023/12/14 08:19:47;;;;;;;7.30;4.88;;;;;;;;;;4930572;29;20044;-58
2023/12/14 08:22:15;;;;;;;7.82;5.10;;;;;;;;;;4931807;29;20039;-57
2023/12/14 08:24:44;;;;;;;8.48;4.50;;;;;;;;;;4929229;29;20032;-56
2023/12/14 08:27:10;;;;;;;7.18;4.20;;;;;;;;;;4921336;29;20043;-58
2023/12/14 08:29:36;;;;;;;7.82;4.43;;;;;;;;;;4928181;29;20039;-57
2023/12/14 08:32:03;;;;;;;5.28;3.97;;;;;;;;;;4928881;29;20051;-58
2023/12/14 08:34:29;;;;;;;9.00;3.92;;;;;;;;;;4932054;29;20612;-58
2023/12/14 08:36:55;;;;;;;8.52;5.28;;;;;;;;;;4929687;29;20039;-56
2023/12/14 08:39:21;;;;;;;12.20;7.88;;;;;;;;;;4945242;29;20034;-56
2023/12/14 08:41:48;;;;;;;11.27;6.15;;;;;;;;;;4944124;29;20050;-58
2023/12/14 08:44:15;;;;;;;7.28;5.05;;;;;;;;;;4932522;29;20028;-58
2023/12/14 08:46:43;;;;;;;8.15;4.63;;;;;;;;;;4929236;29;20035;-57
2023/12/14 08:49:10;;;;;;;11.18;4.75;;;;;;;;;;4930736;29;20031;-59
2023/12/14 08:51:38;;;;;;;8.38;4.75;;;;;;;;;;4929169;29;20051;-58
2023/12/14 08:54:04;;;;;;;9.15;4.88;;;;;;;;;;4931498;29;20074;-58
2023/12/14 08:56:31;;;;;;;6.72;4.15;;;;;;;;;;4932366;29;20047;-58
2023/12/14 08:58:59;;;;;;;8.40;4.40;;;;;;;;;;4945854;29;20044;-57
2023/12/14 09:01:25;;;;;;;7.93;4.90;;;;;;;;;;4947006;29;20048;-57
2023/12/14 09:03:51;;;;;;;10.38;5.13;;;;;;;;;;4932695;29;20042;-57
2023/12/14 09:06:18;;;;;;;7.35;4.18;;;;;;;;;;4914936;29;20036;-57
2023/12/14 09:08:45;;;;;;;9.98;6.50;;;;;;;;;;4930997;29;20043;-58
2023/12/14 09:11:11;;;;;;;9.07;5.07;;;;;;;;;;4930659;29;20039;-56
2023/12/14 09:13:38;;;;;;;9.43;5.20;;;;;;;;;;4932009;29;20059;-58
2023/12/14 09:16:04;;;;;;;11.40;6.22;;;;;;;;;;4932987;29;20043;-56
2023/12/14 09:18:31;;;;;;;7.93;3.85;;;;;;;;;;4926759;29;20055;-56
2023/12/14 09:20:57;;;;;;;12.82;5.20;;;;;;;;;;4930072;29;20051;-55
2023/12/14 09:23:23;;;;;;;9.82;3.53;;;;;;;;;;4931641;29;20035;-57
2023/12/14 09:25:49;;;;;;;6.35;3.65;;;;;;;;;;4928928;29;20042;-59
2023/12/14 09:28:15;;;;;;;14.38;7.15;;;;;;;;;;4929161;29;20043;-57
2023/12/14 09:30:42;;;;;;;12.35;6.50;;;;;;;;;;4931767;29;20035;-58
2023/12/14 09:33:08;;;;;;;10.27;5.50;;;;;;;;;;4929696;29;20040;-57
2023/12/14 09:35:36;;;;;;;10.18;5.53;;;;;;;;;;4928554;29;20111;-56
2023/12/14 09:38:06;;;;;;;8.07;4.85;;;;;;;;;;4929348;29;20043;-56
2023/12/14 09:40:32;;;;;;;9.68;4.72;;;;;;;;;;4930122;29;20050;-58
2023/12/14 09:42:58;;;;;;;8.90;4.80;;;;;;;;;;4929562;29;20077;-60
2023/12/14 09:45:29;;;;;;;8.95;5.03;;;;;;;;;;4929345;29;20039;-58
2023/12/14 09:48:00;;;;;;;9.98;4.47;;;;;;;;;;4945005;29;20039;-58
2023/12/14 09:50:26;;;;;;;8.63;4.82;;;;;;;;;;4915095;29;20046;-58
2023/12/14 09:52:52;;;;;;;7.43;4.15;;;;;;;;;;4925439;29;20036;-58
2023/12/14 09:55:18;;;;;;;7.95;4.72;;;;;;;;;;4929231;29;20047;-55
2023/12/14 09:57:45;;;;;;;8.15;4.10;;;;;;;;;;4930020;29;20491;-61
2023/12/14 10:00:14;;;;;;;8.45;4.28;;;;;;;;;;4930746;29;20040;-58
2023/12/14 10:02:40;;;;;;;10.75;5.20;;;;;;;;;;4931179;29;20048;-58
2023/12/14 10:05:11;;;;;;;7.28;5.15;;;;;;;;;;4930036;29;20059;-58
2023/12/14 10:07:44;;;;;;;8.60;4.97;;;;;;;;;;4943582;29;20060;-61
2023/12/14 10:10:13;;;;;;;13.35;6.22;;;;;;;;;;4928947;29;20038;-57
2023/12/14 10:12:53;;;;;;;8.10;4.43;;;;;;;;;;4931975;29;20043;-58
2023/12/14 10:15:19;;;;;;;6.18;4.20;;;;;;;;;;4929910;29;20536;-56
2023/12/14 10:17:53;;;;;;;7.78;4.38;;;;;;;;;;4931851;29;20487;-58
2023/12/14 10:20:22;;;;;;;10.68;5.30;;;;;;;;;;4931827;29;20051;-56
2023/12/14 10:22:52;;;;;;;8.98;4.85;;;;;;;;;;4931848;29;20043;-58
2023/12/14 10:25:19;;;;;;;10.57;5.97;;;;;;;;;;4930292;29;20034;-57
2023/12/14 10:27:47;;;;;;;11.30;5.90;;;;;;;;;;4933733;29;20391;-58
2023/12/14 10:30:15;;;;;;;14.13;6.75;;;;;;;;;;4935725;29;20035;-58
2023/12/14 10:32:41;;;;;;;14.60;6.15;;;;;;;;;;4931730;29;20404;-58
2023/12/14 10:35:08;;;;;;;12.75;6.28;;;;;;;;;;4931995;29;20043;-60
2023/12/14 10:37:37;;;;;;;11.80;5.82;;;;;;;;;;4931129;29;20055;-58
2023/12/14 10:40:05;;;;;;;;;;;;;;;;;;4931478;29;20035;-59
2023/12/14 10:42:34;;;;;;;12.02;6.70;;;;;;;;;;4933193;29;19991;-58
2023/12/14 10:45:03;;;;;;;14.18;6.97;;;;;;;;;;4931540;29;20039;-58
2023/12/14 10:47:30;;;;;;;11.30;5.88;;;;;;;;;;4925682;29;20035;-58
2023/12/14 10:49:59;;;;;;;12.40;6.38;;;;;;;;;;4926699;29;20042;-56
2023/12/14 10:52:27;;;;;;;13.88;7.05;;;;;;;;;;4933421;29;20060;-57
2023/12/14 10:55:00;;;;;;;14.68;6.60;;;;;;;;;;4932033;29;20043;-56
2023/12/14 10:57:27;;;;;;;15.55;7.90;;;;;;;;;;4927160;29;20512;-59
2023/12/14 11:00:02;;;;;;;17.08;7.43;;;;;;;;;;4934303;29;20050;-60
2023/12/14 11:02:30;;;;;;;19.40;7.45;;;;;;;;;;4933785;29;20392;-58
2023/12/14 11:05:00;;;;;;;17.63;8.60;;;;;;;;;;4930268;29;20059;-60
2023/12/14 11:07:50;;;;;;;13.43;6.57;;;;;;;;;;4935138;29;20399;-59
2023/12/14 11:10:22;;;;;;;10.27;5.97;;;;;;;;;;4929166;29;20032;-59
2023/12/14 11:13:03;;;;;;;15.00;7.25;;;;;;;;;;4934774;29;20047;-58
2023/12/14 11:15:33;;;;;;;13.43;6.70;;;;;;;;;;4933228;29;20024;-58
2023/12/14 11:18:08;;;;;;;11.30;6.40;;;;;;;;;;4934308;29;20051;-58
2023/12/14 11:21:00;;;;;;;11.32;6.78;;;;;;;;;;4933745;29;20061;-60
2023/12/14 11:23:26;;;;;;;11.07;6.28;;;;;;;;;;4937452;29;20048;-57
2023/12/14 11:26:03;;;;;;;12.45;6.75;;;;;;;;;;4932807;29;20062;-58
2023/12/14 11:28:43;;;;;;;11.55;6.85;;;;;;;;;;4933522;29;20052;-58
2023/12/14 11:31:12;;;;;;;17.75;7.70;;;;;;;;;;4943538;29;20039;-58
2023/12/14 11:33:38;;;;;;;10.77;5.88;;;;;;;;;;4916503;29;20488;-59
2023/12/14 11:36:05;;;;;;;9.32;5.40;;;;;;;;;;4929670;29;20043;-59
2023/12/14 11:38:35;;;;;;;8.18;4.82;;;;;;;;;;4932260;29;20550;-58
2023/12/14 11:41:01;;;;;;;;;;;;;;;;;;4933177;29;20109;-58
2023/12/14 11:43:28;;;;;;;8.63;4.78;;;;;;;;;;4932006;29;19921;-57
2023/12/14 11:45:55;;;;;;;7.13;4.47;;;;;;;;;;4928353;29;20058;-58
2023/12/14 11:48:21;;;;;;;5.32;3.20;;;;;;;;;;4930072;29;20035;-57
2023/12/14 11:50:48;;;;;;;5.60;3.10;;;;;;;;;;4927636;29;20032;-57
2023/12/14 11:53:14;;;;;;;7.43;5.00;;;;;;;;;;4917307;29;20035;-58
2023/12/14 11:55:42;;;;;;;4.90;3.15;;;;;;;;;;4942439;29;20399;-57
2023/12/14 11:58:11;;;;;;;2.67;1.90;;;;;;;;;;4927435;29;20039;-57
2023/12/14 12:00:39;;;;;;;4.28;3.25;;;;;;;;;;4933224;29;20054;-57
2023/12/14 12:03:13;;;;;;;5.47;3.80;;;;;;;;;;4932712;29;20395;-57
2023/12/14 12:05:43;;;;;;;9.02;3.67;;;;;;;;;;4932352;29;20043;-57
2023/12/14 12:08:10;;;;;;;7.15;2.90;;;;;;;;;;4930287;29;20035;-56
2023/12/14 12:10:41;;;;;;;6.13;2.95;;;;;;;;;;4931619;29;20055;-58
2023/12/14 12:13:12;;;;;;;8.02;3.90;;;;;;;;;;4934471;29;20375;-58
2023/12/14 12:15:38;;;;;;;6.82;3.92;;;;;;;;;;4930367;29;20055;-57
2023/12/14 12:18:06;;;;;;;8.35;3.63;;;;;;;;;;4916598;29;20039;-57
2023/12/14 12:20:33;;;;;;;7.25;4.22;;;;;;;;;;4931411;29;20047;-57
2023/12/14 12:22:59;;;;;;;7.47;4.30;;;;;;;;;;4948413;29;20043;-58
2023/12/14 12:25:27;;;;;;;7.50;4.50;;;;;;;;;;4948207;29;20047;-58
2023/12/14 12:27:55;;;;;;;5.80;3.83;;;;;;;;;;4933304;29;20042;-57
2023/12/14 12:30:22;;;;;;;5.70;3.70;;;;;;;;;;4933216;29;20051;-57
2023/12/14 12:32:50;;;;;;;6.18;3.47;;;;;;;;;;4931478;29;20035;-57
2023/12/14 12:35:21;;;;;;;6.10;3.40;;;;;;;;;;4932600;29;20252;-57
2023/12/14 12:37:53;;;;;;;4.97;3.55;;;;;;;;;;4931834;29;20047;-60
2023/12/14 12:40:25;;;;;;;5.82;3.15;;;;;;;;;;4933636;29;20500;-57
2023/12/14 12:42:52;;;;;;;6.90;3.65;;;;;;;;;;4932875;29;20062;-58
2023/12/14 12:45:18;;;;;;;6.00;3.35;;;;;;;;;;4929572;29;20043;-59
2023/12/14 12:47:45;;;;;;;7.88;5.05;;;;;;;;;;4930274;29;20055;-56
2023/12/14 12:50:12;;;;;;;6.82;4.18;;;;;;;;;;4932149;29;20050;-59
2023/12/14 12:52:39;;;;;;;6.82;4.10;;;;;;;;;;4933088;29;20043;-58
2023/12/14 12:55:06;;;;;;;5.68;3.75;;;;;;;;;;4931103;29;20365;-56
2023/12/14 12:57:32;;;;;;;7.30;4.00;;;;;;;;;;4929133;29;20055;-57
2023/12/14 12:59:58;;;;;;;5.60;3.97;;;;;;;;;;4932913;29;20046;-58
2023/12/14 13:02:25;;;;;;;7.28;3.78;;;;;;;;;;4948004;29;20055;-57
2023/12/14 13:04:51;;;;;;;7.57;3.85;;;;;;;;;;4930555;29;20040;-57
2023/12/14 13:07:18;;;;;;;6.15;4.38;;;;;;;;;;4930850;29;20047;-57
2023/12/14 13:09:44;;;;;;;12.57;4.82;;;;;;;;;;4945897;29;20051;-57
2023/12/14 13:12:10;;;;;;;8.55;4.75;;;;;;;;;;4933067;29;20054;-57
2023/12/14 13:14:37;;;;;;;12.98;5.63;;;;;;;;;;4946949;29;20047;-57
2023/12/14 13:17:03;;;;;;;8.65;4.95;;;;;;;;;;4931014;29;20047;-57
2023/12/14 13:19:29;;;;;;;10.55;5.15;;;;;;;;;;4947342;29;20046;-57
2023/12/14 13:21:58;;;;;;;7.80;4.28;;;;;;;;;;4933247;29;20042;-55
2023/12/14 13:24:24;;;;;;;6.28;3.92;;;;;;;;;;4916238;29;20043;-59
2023/12/14 13:26:50;;;;;;;6.72;4.03;;;;;;;;;;4946043;29;20043;-57
2023/12/14 13:29:16;;;;;;;7.88;4.28;;;;;;;;;;4932420;29;20387;-57
2023/12/14 13:31:43;;;;;;;8.90;5.15;;;;;;;;;;4930607;29;20043;-58
2023/12/14 13:34:09;;;;;;;8.65;4.78;;;;;;;;;;4929878;29;20062;-57
2023/12/14 13:36:35;;;;;;;9.05;4.43;;;;;;;;;;4929119;29;20064;-59
2023/12/14 13:39:01;;;;;;;5.63;3.80;;;;;;;;;;4928947;29;20040;-57
2023/12/14 13:41:28;;;;;;;7.93;4.75;;;;;;;;;;4930374;29;20491;-58
2023/12/14 13:43:54;;;;;;;8.43;4.53;;;;;;;;;;4929322;29;20059;-58
2023/12/14 13:46:20;;;;;;;5.28;3.42;;;;;;;;;;4930896;29;20051;-60
2023/12/14 13:48:46;;;;;;;5.97;3.60;;;;;;;;;;4926107;29;20048;-58
2023/12/14 13:51:12;;;;;;;7.13;3.30;;;;;;;;;;4931186;29;20028;-57
2023/12/14 13:53:39;;;;;;;10.27;5.18;;;;;;;;;;4932062;29;20066;-58
2023/12/14 13:56:05;;;;;;;8.77;4.28;;;;;;;;;;4932527;29;20031;-57
2023/12/14 13:58:34;;;;;;;5.65;3.53;;;;;;;;;;4914894;29;20047;-56
2023/12/14 14:01:00;;;;;;;5.65;3.60;;;;;;;;;;4935329;29;20073;-57
2023/12/14 14:03:27;;;;;;;5.78;3.40;;;;;;;;;;4949306;29;20065;-60
2023/12/14 14:05:53;;;;;;;8.50;4.30;;;;;;;;;;4922459;29;20040;-57
2023/12/14 14:08:20;;;;;;;9.43;4.60;;;;;;;;;;4934161;29;20040;-55
2023/12/14 14:10:47;;;;;;;7.28;3.95;;;;;;;;;;4935756;29;20044;-58
2023/12/14 14:13:13;;;;;;;6.25;3.83;;;;;;;;;;4950573;29;20054;-58
2023/12/14 14:15:39;;;;;;;7.60;3.78;;;;;;;;;;4932700;29;20043;-57
2023/12/14 14:18:05;;;;;;;6.70;3.85;;;;;;;;;;4935409;29;20051;-56
2023/12/14 14:20:31;;;;;;;6.43;3.28;;;;;;;;;;4933709;29;20052;-57
2023/12/14 14:22:59;;;;;;;5.45;3.28;;;;;;;;;;4931864;29;20064;-57
2023/12/14 14:25:25;;;;;;;5.15;3.17;;;;;;;;;;4935071;29;20387;-57
2023/12/14 14:27:52;;;;;;;5.18;3.08;;;;;;;;;;4935604;29;20047;-56
2023/12/14 14:30:18;;;;;;;5.57;3.50;;;;;;;;;;4935473;29;20044;-55
2023/12/14 14:32:45;;;;;;;5.50;3.08;;;;;;;;;;4935893;29;20051;-57
2023/12/14 14:35:11;;;;;;;8.57;4.13;;;;;;;;;;4935932;29;20400;-55
2023/12/14 14:37:37;;;;;;;8.63;4.15;;;;;;;;;;4934120;29;20055;-56
2023/12/14 14:40:04;;;;;;;6.28;3.53;;;;;;;;;;4935020;29;20039;-57